Time;durP1;ratioP1;P1;durP2;ratioP2;P2;SDS_P1;SDS_P2;PMS_P1;PMS_P2;Temp;Humidity;BMP_temperature;BMP_pressure;BME280_temperature;BME280_humidity;BME280_pressure;Samples;Min_cycle;Max_cycle;Signal;HPM_P1;HPM_P2
2021/06/10 00:00:00;;;;;;;7.57;5.45;;;7.10;99.90;;;;;;4924591;29;20055;-74
2021/06/10 00:02:28;;;;;;;11.13;6.68;;;7.20;99.90;;;;;;4924878;29;20031;-75
2021/06/10 00:04:55;;;;;;;8.73;5.93;;;7.20;99.90;;;;;;4925255;29;20027;-72
2021/06/10 00:07:23;;;;;;;9.57;6.20;;;7.30;99.90;;;;;;4926694;29;20031;-73
2021/06/10 00:09:51;;;;;;;9.52;6.35;;;7.30;99.90;;;;;;4925316;29;20435;-73
2021/06/10 00:12:20;;;;;;;8.20;5.93;;;7.40;99.90;;;;;;4924811;29;20050;-74
2021/06/10 00:14:49;;;;;;;11.15;6.63;;;7.50;99.90;;;;;;4924676;29;20032;-72
2021/06/10 00:17:17;;;;;;;10.07;6.45;;;7.50;99.90;;;;;;4927045;29;20023;-74
2021/06/10 00:19:44;;;;;;;9.13;5.60;;;7.60;99.90;;;;;;4925178;29;20450;-73
2021/06/10 00:22:12;;;;;;;9.55;6.03;;;7.70;99.90;;;;;;4924480;29;20027;-75
2021/06/10 00:24:40;;;;;;;9.80;6.60;;;7.70;99.90;;;;;;4927896;29;20032;-74
2021/06/10 00:27:08;;;;;;;7.97;5.57;;;7.80;99.90;;;;;;4930601;29;20020;-74
2021/06/10 00:29:36;;;;;;;7.70;5.22;;;7.80;99.90;;;;;;4926608;29;20506;-75
2021/06/10 00:32:03;;;;;;;7.95;6.00;;;7.90;99.90;;;;;;4925675;29;20043;-75
2021/06/10 00:34:31;;;;;;;10.43;5.88;;;8.00;99.90;;;;;;4924265;29;20562;-73
2021/06/10 00:36:58;;;;;;;8.55;6.53;;;8.10;99.90;;;;;;4926021;29;20063;-74
2021/06/10 00:39:25;;;;;;;9.05;6.47;;;8.20;99.90;;;;;;4925959;29;20058;-74
2021/06/10 00:41:53;;;;;;;11.68;6.35;;;8.30;99.90;;;;;;4927146;29;20111;-73
2021/06/10 00:44:20;;;;;;;10.13;7.13;;;8.40;99.90;;;;;;4927899;29;20035;-76
2021/06/10 00:46:48;;;;;;;10.27;6.60;;;8.50;99.90;;;;;;4924482;29;20131;-75
2021/06/10 00:49:15;;;;;;;7.85;5.47;;;8.50;99.90;;;;;;4925339;29;20036;-74
2021/06/10 00:51:43;;;;;;;5.57;4.50;;;8.60;99.90;;;;;;4924879;29;20581;-73
2021/06/10 00:54:10;;;;;;;6.60;4.78;;;8.70;99.90;;;;;;4925168;29;20066;-73
2021/06/10 00:56:38;;;;;;;11.98;5.55;;;8.80;99.90;;;;;;4924668;29;20024;-75
2021/06/10 00:59:06;;;;;;;8.18;4.93;;;8.80;99.90;;;;;;4924371;29;20435;-74
2021/06/10 01:01:33;;;;;;;8.20;2.92;;;9.00;99.90;;;;;;4924560;29;20075;-72
2021/06/10 01:04:00;;;;;;;2.58;1.52;;;9.10;99.90;;;;;;4925860;29;20015;-74
2021/06/10 01:06:59;;;;;;;4.75;1.45;;;9.30;99.90;;;;;;4925052;29;20059;-71
2021/06/10 01:09:47;;;;;;;0.90;0.52;;;9.40;99.90;;;;;;4924064;29;20631;-72
2021/06/10 01:12:24;;;;;;;1.45;1.13;;;9.40;99.90;;;;;;4924997;29;20589;-70
2021/06/10 01:15:12;;;;;;;0.93;0.40;;;9.50;99.90;;;;;;4923357;29;20032;-71
2021/06/10 01:17:44;;;;;;;1.40;0.73;;;9.60;99.90;;;;;;4925242;29;20118;-73
2021/06/10 01:20:26;;;;;;;1.40;0.50;;;9.60;99.90;;;;;;4924724;29;20687;-71
2021/06/10 01:23:06;;;;;;;3.28;1.50;;;9.60;99.90;;;;;;4926143;29;20053;-74
2021/06/10 01:25:34;;;;;;;1.75;0.52;;;9.70;99.90;;;;;;4926649;29;20023;-74
2021/06/10 01:28:33;;;;;;;0.50;0.30;;;9.60;99.90;;;;;;4927547;29;20039;-71
2021/06/10 01:31:05;;;;;;;1.13;0.30;;;9.60;99.90;;;;;;4925947;29;20023;-71
2021/06/10 01:33:55;;;;;;;0.90;0.20;;;9.50;99.90;;;;;;4922251;29;20044;-72
2021/06/10 01:36:43;;;;;;;1.48;0.85;;;9.40;99.90;;;;;;4924186;29;20031;-72
2021/06/10 01:39:13;;;;;;;0.25;0.22;;;9.30;99.90;;;;;;4921410;29;20046;-72
2021/06/10 01:41:41;;;;;;;0.45;0.20;;;9.30;99.90;;;;;;4925976;29;20032;-72
2021/06/10 01:44:11;;;;;;;0.40;0.20;;;9.30;99.90;;;;;;4925669;29;20031;-72
2021/06/10 01:46:40;;;;;;;0.88;0.43;;;9.40;99.90;;;;;;4919969;29;20032;-73
2021/06/10 01:49:16;;;;;;;0.20;0.20;;;9.40;99.90;;;;;;4922584;29;20027;-73
2021/06/10 01:51:43;;;;;;;;;;;9.30;99.90;;;;;;4925013;29;20234;-72
2021/06/10 01:54:12;;;;;;;0.63;0.30;;;9.30;99.90;;;;;;4924056;29;19939;-72
2021/06/10 01:56:43;;;;;;;2.30;0.40;;;9.40;99.90;;;;;;4923735;29;20039;-72
2021/06/10 01:59:12;;;;;;;0.50;0.22;;;9.50;99.90;;;;;;4924184;29;20177;-72
2021/06/10 02:01:41;;;;;;;1.20;0.43;;;9.50;99.90;;;;;;4922315;29;20083;-74
2021/06/10 02:04:10;;;;;;;0.55;0.20;;;9.60;99.90;;;;;;4921720;29;20470;-74
2021/06/10 02:06:43;;;;;;;0.32;0.17;;;9.60;99.90;;;;;;4926727;29;20054;-73
2021/06/10 02:09:11;;;;;;;0.50;0.20;;;9.60;99.90;;;;;;4905174;29;20091;-73
2021/06/10 02:11:40;;;;;;;1.00;0.32;;;9.60;99.90;;;;;;4923263;29;20547;-74
2021/06/10 02:14:10;;;;;;;1.00;0.40;;;9.60;99.90;;;;;;4922911;29;20035;-71
2021/06/10 02:16:42;;;;;;;0.50;0.40;;;9.60;99.90;;;;;;4926135;29;20039;-72
2021/06/10 02:19:10;;;;;;;1.50;0.38;;;9.60;99.90;;;;;;4922345;29;20054;-72
2021/06/10 02:21:38;;;;;;;2.75;0.20;;;9.40;99.90;;;;;;4923479;29;20040;-72
2021/06/10 02:24:06;;;;;;;1.10;0.60;;;9.40;99.90;;;;;;4924123;29;20043;-74
2021/06/10 02:26:34;;;;;;;1.05;0.30;;;9.30;99.90;;;;;;4922239;29;20034;-72
2021/06/10 02:29:01;;;;;;;1.55;0.40;;;9.30;99.90;;;;;;4923968;29;20027;-71
2021/06/10 02:31:29;;;;;;;0.22;0.20;;;9.30;99.90;;;;;;4924708;29;20023;-71
2021/06/10 02:33:56;;;;;;;0.20;0.10;;;9.20;99.90;;;;;;4922363;29;20024;-71
2021/06/10 02:36:25;;;;;;;0.57;0.20;;;9.10;99.90;;;;;;4923604;29;20031;-73
2021/06/10 02:38:56;;;;;;;0.57;0.20;;;9.10;99.90;;;;;;4918513;29;20035;-72
2021/06/10 02:41:30;;;;;;;1.30;0.32;;;9.10;99.90;;;;;;4913848;29;21449;-73
2021/06/10 02:44:00;;;;;;;0.50;0.30;;;9.10;99.90;;;;;;4924077;29;20016;-71
2021/06/10 02:46:29;;;;;;;1.52;0.10;;;9.20;99.90;;;;;;4919709;29;20031;-71
2021/06/10 02:48:58;;;;;;;0.40;0.38;;;9.10;99.90;;;;;;4922186;29;20048;-71
2021/06/10 02:51:30;;;;;;;1.25;0.50;;;9.10;99.90;;;;;;4921079;29;20039;-71
2021/06/10 02:53:58;;;;;;;0.68;0.30;;;9.10;99.90;;;;;;4920984;29;20028;-72
2021/06/10 02:56:27;;;;;;;1.17;0.35;;;9.10;99.90;;;;;;4918508;29;20627;-70
2021/06/10 02:58:56;;;;;;;0.70;0.30;;;9.00;99.90;;;;;;4924964;29;20028;-71
2021/06/10 03:01:24;;;;;;;1.08;0.40;;;9.00;99.90;;;;;;4923010;29;20099;-71
2021/06/10 03:03:52;;;;;;;1.58;0.45;;;9.00;99.90;;;;;;4924155;29;20024;-73
2021/06/10 03:06:23;;;;;;;1.13;0.75;;;9.10;99.90;;;;;;4920685;29;20027;-72
2021/06/10 03:08:54;;;;;;;1.25;0.50;;;9.10;99.90;;;;;;4923663;29;20075;-71
2021/06/10 03:11:22;;;;;;;0.50;0.25;;;9.10;99.90;;;;;;4919531;29;20031;-75
2021/06/10 03:13:51;;;;;;;1.00;0.93;;;9.10;99.90;;;;;;4921650;29;20043;-74
2021/06/10 03:16:19;;;;;;;1.05;0.30;;;9.10;99.90;;;;;;4920447;29;20119;-72
2021/06/10 03:18:47;;;;;;;0.20;0.20;;;9.20;99.90;;;;;;4920613;29;20079;-73
2021/06/10 03:21:17;;;;;;;0.65;0.43;;;9.30;99.90;;;;;;4921190;29;20027;-72
2021/06/10 03:23:45;;;;;;;0.40;0.32;;;9.40;99.90;;;;;;4922310;29;20024;-73
2021/06/10 03:26:13;;;;;;;0.17;0.17;;;9.30;99.90;;;;;;4923342;29;20036;-73
2021/06/10 03:28:42;;;;;;;0.77;0.25;;;9.30;99.90;;;;;;4921521;29;20055;-73
2021/06/10 03:31:10;;;;;;;0.40;0.30;;;9.40;99.90;;;;;;4922258;29;20738;-72
2021/06/10 03:33:37;;;;;;;1.30;0.30;;;9.40;99.90;;;;;;4922810;29;20035;-71
2021/06/10 03:36:08;;;;;;;0.90;0.35;;;9.50;99.90;;;;;;4923126;29;20050;-72
2021/06/10 03:38:38;;;;;;;0.20;0.17;;;9.40;99.90;;;;;;4921678;29;20122;-72
2021/06/10 03:41:06;;;;;;;0.55;0.30;;;9.50;99.90;;;;;;4922686;29;20072;-70
2021/06/10 03:43:35;;;;;;;2.22;0.30;;;9.60;99.90;;;;;;4924502;29;20091;-70
2021/06/10 03:46:06;;;;;;;1.27;0.45;;;9.60;99.90;;;;;;4926662;29;20509;-71
2021/06/10 03:48:38;;;;;;;0.93;0.30;;;9.60;99.90;;;;;;4926288;29;20028;-71
2021/06/10 03:51:18;;;;;;;2.90;0.40;;;9.60;99.90;;;;;;4926044;29;20036;-71
2021/06/10 03:53:46;;;;;;;0.90;0.20;;;9.60;99.90;;;;;;4928797;29;20063;-71
2021/06/10 03:56:16;;;;;;;0.40;0.38;;;9.60;99.90;;;;;;4924297;29;20043;-72
2021/06/10 03:58:43;;;;;;;1.63;0.55;;;9.60;99.90;;;;;;4925859;29;20035;-72
2021/06/10 04:01:10;;;;;;;0.90;0.65;;;9.60;99.90;;;;;;4926303;29;20067;-71
2021/06/10 04:03:39;;;;;;;1.52;1.02;;;9.60;99.90;;;;;;4927641;29;20117;-72
2021/06/10 04:06:09;;;;;;;1.70;1.02;;;9.60;99.90;;;;;;4925628;29;20490;-70
2021/06/10 04:08:36;;;;;;;0.57;0.50;;;9.70;99.90;;;;;;4927922;29;20617;-70
2021/06/10 04:11:04;;;;;;;1.13;0.47;;;9.70;99.90;;;;;;4926320;29;20046;-74
2021/06/10 04:13:31;;;;;;;1.83;0.45;;;9.60;99.90;;;;;;4925302;29;20154;-71
2021/06/10 04:15:58;;;;;;;1.90;0.50;;;9.60;99.90;;;;;;4927099;29;20035;-71
2021/06/10 04:18:26;;;;;;;0.43;0.30;;;9.60;99.90;;;;;;4927082;29;20046;-71
2021/06/10 04:20:53;;;;;;;0.85;0.52;;;9.60;99.90;;;;;;4926139;29;20690;-73
2021/06/10 04:23:21;;;;;;;0.93;0.40;;;9.60;99.90;;;;;;4926298;29;20039;-72
2021/06/10 04:25:48;;;;;;;1.67;0.40;;;9.60;99.90;;;;;;4925082;29;21968;-73
2021/06/10 04:28:16;;;;;;;0.50;0.35;;;9.60;99.90;;;;;;4924179;29;20146;-73
2021/06/10 04:30:43;;;;;;;0.40;0.32;;;9.50;99.90;;;;;;4924135;29;20082;-72
2021/06/10 04:33:10;;;;;;;0.77;0.40;;;9.60;99.90;;;;;;4924920;29;20166;-71
2021/06/10 04:35:38;;;;;;;0.88;0.30;;;9.50;99.90;;;;;;4927102;29;20032;-72
2021/06/10 04:38:06;;;;;;;1.25;0.30;;;9.50;99.90;;;;;;4928190;29;20031;-72
2021/06/10 04:40:34;;;;;;;0.63;0.20;;;9.40;99.90;;;;;;4925960;29;20041;-73
2021/06/10 04:43:01;;;;;;;1.08;0.25;;;9.40;99.90;;;;;;4924993;29;20486;-73
2021/06/10 04:45:28;;;;;;;0.73;0.30;;;9.50;99.90;;;;;;4923407;29;20039;-74
2021/06/10 04:47:56;;;;;;;1.77;0.60;;;9.40;99.90;;;;;;4925709;29;20478;-72
2021/06/10 04:50:26;;;;;;;1.77;0.43;;;9.40;99.90;;;;;;4922882;29;20032;-72
2021/06/10 04:52:55;;;;;;;0.57;0.30;;;9.40;99.90;;;;;;4925311;29;20036;-72
2021/06/10 04:55:23;;;;;;;2.80;0.30;;;9.30;99.90;;;;;;4924115;29;20070;-72
2021/06/10 04:57:51;;;;;;;1.05;0.40;;;9.30;99.90;;;;;;4928115;29;20079;-71
2021/06/10 05:00:18;;;;;;;2.35;0.40;;;9.30;99.90;;;;;;4923030;29;20087;-74
2021/06/10 05:02:46;;;;;;;0.20;0.20;;;9.30;99.90;;;;;;4923706;29;20378;-72
2021/06/10 05:05:13;;;;;;;0.73;0.22;;;9.20;99.90;;;;;;4926689;29;20031;-72
2021/06/10 05:07:41;;;;;;;1.10;0.50;;;9.20;99.90;;;;;;4923544;29;20038;-72
2021/06/10 05:10:08;;;;;;;0.43;0.25;;;9.10;99.90;;;;;;4922668;29;20155;-72
2021/06/10 05:12:36;;;;;;;0.73;0.28;;;9.10;99.90;;;;;;4925855;29;20038;-72
2021/06/10 05:15:05;;;;;;;0.50;0.30;;;9.10;99.90;;;;;;4924178;29;20035;-73
2021/06/10 05:17:33;;;;;;;1.77;0.40;;;9.00;99.90;;;;;;4923445;29;20030;-73
2021/06/10 05:20:00;;;;;;;0.65;0.30;;;9.00;99.90;;;;;;4925567;29;20044;-72
2021/06/10 05:22:28;;;;;;;0.57;0.32;;;8.90;99.90;;;;;;4903927;29;20505;-72
2021/06/10 05:24:57;;;;;;;0.47;0.20;;;8.90;99.90;;;;;;4927134;29;20047;-74
2021/06/10 05:27:24;;;;;;;1.98;0.60;;;8.90;99.90;;;;;;4921215;29;20055;-75
2021/06/10 05:29:52;;;;;;;1.58;0.50;;;8.90;99.90;;;;;;4920885;29;20023;-73
2021/06/10 05:32:19;;;;;;;0.73;0.30;;;8.80;99.90;;;;;;4926487;29;20059;-76
2021/06/10 05:34:47;;;;;;;0.55;0.30;;;8.80;99.90;;;;;;4926625;29;20028;-74
2021/06/10 05:37:14;;;;;;;0.80;0.50;;;8.80;99.90;;;;;;4924124;29;20027;-74
2021/06/10 05:39:42;;;;;;;1.02;0.20;;;8.80;99.90;;;;;;4922440;29;20030;-73
2021/06/10 05:42:10;;;;;;;2.30;0.35;;;8.80;99.90;;;;;;4926353;29;20027;-74
2021/06/10 05:44:37;;;;;;;0.50;0.30;;;8.70;99.90;;;;;;4924989;29;20024;-73
2021/06/10 05:47:05;;;;;;;0.60;0.40;;;8.70;99.90;;;;;;4927945;29;20040;-71
2021/06/10 05:49:32;;;;;;;0.55;0.40;;;8.70;99.90;;;;;;4919665;29;20046;-73
2021/06/10 05:52:00;;;;;;;0.98;0.50;;;8.70;99.90;;;;;;4925400;29;20486;-73
2021/06/10 05:54:27;;;;;;;3.97;0.43;;;8.70;99.90;;;;;;4922465;29;20039;-74
2021/06/10 05:56:55;;;;;;;0.70;0.68;;;8.70;99.90;;;;;;4926123;29;20363;-72
2021/06/10 05:59:22;;;;;;;2.13;1.35;;;8.70;99.90;;;;;;4924328;29;20050;-73
2021/06/10 06:01:50;;;;;;;1.08;0.60;;;8.60;99.90;;;;;;4924837;29;20043;-72
2021/06/10 06:04:17;;;;;;;2.20;1.02;;;8.60;99.90;;;;;;4922937;29;20056;-73
2021/06/10 06:06:45;;;;;;;2.67;1.35;;;8.70;99.90;;;;;;4923176;29;20506;-68
2021/06/10 06:09:12;;;;;;;1.77;1.33;;;8.60;99.90;;;;;;4924043;29;20036;-73
2021/06/10 06:11:40;;;;;;;2.00;1.77;;;8.60;99.90;;;;;;4929606;29;20040;-70
2021/06/10 06:14:13;;;;;;;5.65;4.10;;;8.70;99.90;;;;;;4924242;29;20426;-69
2021/06/10 06:16:45;;;;;;;11.38;7.15;;;8.80;99.90;;;;;;4925199;29;20020;-70
2021/06/10 06:19:13;;;;;;;7.65;5.90;;;8.80;99.90;;;;;;4922472;29;20063;-70
2021/06/10 06:21:44;;;;;;;2.72;2.33;;;8.80;99.90;;;;;;4922658;29;20044;-68
2021/06/10 06:24:13;;;;;;;1.05;0.63;;;8.80;99.90;;;;;;4922748;29;20079;-70
2021/06/10 06:26:41;;;;;;;1.33;0.60;;;8.80;99.90;;;;;;4923280;29;20031;-70
2021/06/10 06:29:09;;;;;;;1.10;0.68;;;8.80;99.90;;;;;;4923369;29;20032;-69
2021/06/10 06:31:37;;;;;;;0.68;0.50;;;8.90;99.90;;;;;;4922892;29;20415;-71
2021/06/10 06:34:07;;;;;;;1.38;0.82;;;8.80;99.90;;;;;;4923999;29;20125;-70
2021/06/10 06:36:34;;;;;;;1.77;0.63;;;8.70;99.90;;;;;;4922199;29;20890;-70
2021/06/10 06:39:02;;;;;;;2.95;0.80;;;8.70;99.90;;;;;;4922445;29;20031;-70
2021/06/10 06:41:29;;;;;;;1.35;0.50;;;8.70;99.90;;;;;;4925009;29;20478;-73
2021/06/10 06:43:56;;;;;;;4.43;0.70;;;8.70;99.90;;;;;;4924311;29;20106;-71
2021/06/10 06:46:24;;;;;;;1.45;0.52;;;8.70;99.90;;;;;;4921154;29;20035;-69
2021/06/10 06:48:52;;;;;;;1.23;0.70;;;8.80;99.90;;;;;;4924351;29;20110;-73
2021/06/10 06:51:19;;;;;;;1.00;0.50;;;8.80;99.90;;;;;;4922029;29;20042;-69
2021/06/10 06:53:47;;;;;;;2.80;0.90;;;8.70;99.90;;;;;;4923951;29;20033;-70
2021/06/10 06:56:14;;;;;;;2.78;0.60;;;8.70;99.90;;;;;;4922684;29;20522;-73
2021/06/10 06:58:41;;;;;;;1.52;0.70;;;8.80;99.90;;;;;;4924072;29;20419;-71
2021/06/10 07:01:09;;;;;;;1.10;0.77;;;8.70;99.90;;;;;;4922268;29;20055;-73
2021/06/10 07:03:37;;;;;;;1.65;0.60;;;8.80;99.90;;;;;;4922707;29;20587;-73
2021/06/10 07:06:04;;;;;;;1.10;0.80;;;8.80;99.90;;;;;;4926518;29;20423;-70
2021/06/10 07:08:32;;;;;;;1.90;0.90;;;8.80;99.90;;;;;;4924325;29;20030;-70
2021/06/10 07:10:59;;;;;;;1.33;0.73;;;8.80;99.90;;;;;;4922999;29;20024;-70
2021/06/10 07:13:27;;;;;;;2.75;0.90;;;8.80;99.90;;;;;;4907036;29;20031;-71
2021/06/10 07:15:55;;;;;;;0.98;0.63;;;8.80;99.90;;;;;;4926722;29;20035;-70
2021/06/10 07:18:22;;;;;;;0.57;0.28;;;8.80;99.90;;;;;;4926835;29;20052;-72
2021/06/10 07:20:50;;;;;;;3.00;0.68;;;8.80;99.90;;;;;;4926873;29;20162;-72
2021/06/10 07:23:17;;;;;;;1.70;0.80;;;8.80;99.90;;;;;;4925321;29;20520;-72
2021/06/10 07:25:45;;;;;;;3.15;0.70;;;8.80;99.90;;;;;;4929326;29;20087;-73
2021/06/10 07:28:12;;;;;;;1.40;0.77;;;8.80;99.90;;;;;;4927410;29;20364;-73
2021/06/10 07:30:39;;;;;;;1.52;0.63;;;8.80;99.90;;;;;;4927242;29;20032;-72
2021/06/10 07:33:07;;;;;;;0.55;0.50;;;8.80;99.90;;;;;;4929610;29;20024;-71
2021/06/10 07:35:35;;;;;;;1.17;0.70;;;8.80;99.90;;;;;;4926671;29;20734;-71
2021/06/10 07:38:04;;;;;;;1.33;0.50;;;8.80;99.90;;;;;;4927084;29;20029;-73
2021/06/10 07:40:33;;;;;;;1.02;0.50;;;8.80;99.90;;;;;;4926820;29;20134;-71
2021/06/10 07:43:00;;;;;;;1.60;0.93;;;8.80;99.90;;;;;;4927991;29;20027;-74
2021/06/10 07:45:29;;;;;;;0.85;0.50;;;8.70;99.90;;;;;;4923680;29;20048;-72
2021/06/10 07:47:57;;;;;;;1.80;0.70;;;8.70;99.90;;;;;;4927510;29;20022;-73
2021/06/10 07:50:25;;;;;;;4.05;1.15;;;8.70;99.90;;;;;;4927257;29;20028;-72
2021/06/10 07:52:53;;;;;;;1.25;0.93;;;8.70;99.90;;;;;;4927688;29;20027;-71
2021/06/10 07:55:21;;;;;;;2.70;1.67;;;8.70;99.90;;;;;;4925695;29;20414;-71
2021/06/10 07:57:50;;;;;;;7.45;4.82;;;8.80;99.90;;;;;;4922747;29;20032;-73
2021/06/10 08:00:19;;;;;;;9.00;4.63;;;8.80;99.90;;;;;;4923541;29;20035;-72
2021/06/10 08:02:47;;;;;;;9.52;5.38;;;8.80;99.90;;;;;;4926726;29;20079;-70
2021/06/10 08:05:15;;;;;;;7.70;4.40;;;8.80;99.90;;;;;;4925229;29;20118;-73
2021/06/10 08:07:43;;;;;;;6.40;4.07;;;8.80;99.90;;;;;;4926173;29;20150;-73
2021/06/10 08:10:12;;;;;;;6.55;3.55;;;8.80;99.90;;;;;;4923902;29;20424;-72
2021/06/10 08:12:40;;;;;;;5.28;3.58;;;8.80;99.90;;;;;;4926182;29;20479;-72
2021/06/10 08:15:08;;;;;;;3.42;1.75;;;8.80;99.90;;;;;;4925214;29;20047;-73
2021/06/10 08:17:36;;;;;;;7.43;5.05;;;8.80;99.90;;;;;;4925723;29;20411;-73
2021/06/10 08:20:09;;;;;;;6.93;4.63;;;8.80;99.90;;;;;;4906140;29;21937;-71
2021/06/10 08:22:37;;;;;;;4.50;3.13;;;8.80;99.90;;;;;;4909683;29;20036;-72
2021/06/10 08:25:08;;;;;;;6.75;3.75;;;8.70;99.90;;;;;;4926190;29;20028;-73
2021/06/10 08:27:36;;;;;;;6.18;3.78;;;8.70;99.90;;;;;;4923915;29;20066;-72
2021/06/10 08:30:06;;;;;;;3.95;2.40;;;8.70;99.90;;;;;;4926898;29;20529;-75
2021/06/10 08:32:34;;;;;;;4.43;2.42;;;8.70;99.90;;;;;;4923230;29;20035;-75
2021/06/10 08:35:01;;;;;;;3.72;2.60;;;8.70;99.90;;;;;;4923332;29;20028;-72
2021/06/10 08:37:29;;;;;;;2.55;2.15;;;8.70;99.90;;;;;;4926545;29;20028;-73
2021/06/10 08:39:57;;;;;;;7.97;1.92;;;8.70;99.90;;;;;;4926042;29;20087;-70
2021/06/10 08:42:24;;;;;;;2.75;1.40;;;8.70;99.90;;;;;;4925165;29;20479;-70
2021/06/10 08:44:53;;;;;;;2.17;1.35;;;8.70;99.90;;;;;;4926926;29;20035;-70
2021/06/10 08:47:21;;;;;;;5.75;0.90;;;8.70;99.90;;;;;;4925908;29;20139;-71
2021/06/10 08:49:49;;;;;;;1.75;1.02;;;8.70;99.90;;;;;;4924415;29;20042;-71
2021/06/10 08:52:17;;;;;;;3.55;1.02;;;8.70;99.90;;;;;;4925683;29;20027;-73
2021/06/10 08:54:46;;;;;;;2.50;1.23;;;8.70;99.90;;;;;;4925611;29;20037;-72
2021/06/10 08:57:13;;;;;;;2.05;1.00;;;8.70;99.90;;;;;;4925765;29;20562;-72
2021/06/10 08:59:40;;;;;;;3.63;2.20;;;8.70;99.90;;;;;;4926337;29;20063;-71
2021/06/10 09:02:09;;;;;;;1.52;0.93;;;8.70;99.90;;;;;;4924945;29;20063;-72
2021/06/10 09:04:36;;;;;;;2.58;1.00;;;8.70;99.90;;;;;;4924857;29;20120;-73
2021/06/10 09:07:04;;;;;;;2.53;1.45;;;8.70;99.90;;;;;;4927160;29;20023;-73
2021/06/10 09:09:38;;;;;;;1.52;1.40;;;8.60;99.90;;;;;;4923106;29;20059;-73
2021/06/10 09:12:08;;;;;;;3.30;2.13;;;8.70;99.90;;;;;;4925303;29;20031;-74
2021/06/10 09:14:57;;;;;;;4.30;2.10;;;8.70;99.90;;;;;;4922676;29;20044;-74
2021/06/10 09:17:31;;;;;;;4.45;2.40;;;8.70;99.90;;;;;;4924279;29;20086;-73
2021/06/10 09:19:59;;;;;;;4.15;1.98;;;8.70;99.90;;;;;;4923292;29;20040;-73
2021/06/10 09:22:28;;;;;;;3.28;2.03;;;8.70;99.90;;;;;;4925288;29;20482;-73
2021/06/10 09:25:10;;;;;;;2.72;1.73;;;8.70;99.90;;;;;;4924344;29;20035;-73
2021/06/10 09:27:58;;;;;;;2.50;2.03;;;8.70;99.90;;;;;;4908643;29;20032;-72
2021/06/10 09:30:38;;;;;;;1.98;1.75;;;8.70;99.90;;;;;;4923779;29;20082;-72
2021/06/10 09:33:10;;;;;;;4.30;2.45;;;8.70;99.90;;;;;;4924857;29;20549;-73
2021/06/10 09:35:40;;;;;;;3.50;2.30;;;8.70;99.90;;;;;;4922802;29;20042;-74
2021/06/10 09:38:14;;;;;;;2.88;2.05;;;8.60;99.90;;;;;;4921324;29;20031;-74
2021/06/10 09:40:43;;;;;;;3.72;2.40;;;8.70;99.90;;;;;;4925265;29;20034;-71
2021/06/10 09:43:11;;;;;;;2.58;1.85;;;8.60;99.90;;;;;;4923752;29;20027;-73
2021/06/10 09:45:43;;;;;;;3.95;2.50;;;8.60;99.90;;;;;;4921900;29;20039;-73
2021/06/10 09:48:11;;;;;;;4.88;3.30;;;8.60;99.90;;;;;;4925398;29;20079;-72
2021/06/10 09:50:45;;;;;;;5.68;2.70;;;8.50;99.90;;;;;;4922047;29;20035;-70
2021/06/10 09:53:14;;;;;;;3.30;2.42;;;8.60;99.90;;;;;;4922082;29;20024;-72
2021/06/10 09:55:43;;;;;;;3.17;1.70;;;8.50;99.90;;;;;;4922503;29;20031;-75
2021/06/10 09:58:13;;;;;;;3.22;2.10;;;8.50;99.90;;;;;;4921363;29;20023;-73
2021/06/10 10:01:05;;;;;;;2.70;1.88;;;8.50;99.90;;;;;;4921051;29;20052;-71
2021/06/10 10:03:44;;;;;;;3.92;2.13;;;8.50;99.90;;;;;;4920810;29;20462;-71
2021/06/10 10:06:21;;;;;;;3.75;1.80;;;8.50;99.90;;;;;;4922874;29;20032;-70
2021/06/10 10:08:56;;;;;;;3.00;2.08;;;8.40;99.90;;;;;;4921577;29;20039;-71
2021/06/10 10:11:26;;;;;;;2.53;1.73;;;8.50;99.90;;;;;;4922994;29;20024;-71
2021/06/10 10:13:56;;;;;;;4.45;2.10;;;8.50;99.90;;;;;;4923220;29;20042;-69
2021/06/10 10:16:26;;;;;;;2.78;2.13;;;8.50;99.90;;;;;;4923393;29;20039;-72
2021/06/10 10:18:55;;;;;;;3.65;1.77;;;8.50;99.90;;;;;;4925361;29;20020;-73
2021/06/10 10:21:28;;;;;;;4.20;1.92;;;8.60;99.90;;;;;;4925917;29;20039;-73
2021/06/10 10:24:01;;;;;;;2.30;1.55;;;8.50;99.90;;;;;;4926785;29;20402;-69
2021/06/10 10:26:30;;;;;;;3.00;1.70;;;8.60;99.90;;;;;;4927163;29;20085;-70
2021/06/10 10:28:59;;;;;;;3.63;1.70;;;8.60;99.90;;;;;;4922288;29;20036;-70
2021/06/10 10:31:29;;;;;;;2.90;1.65;;;8.50;99.90;;;;;;4927387;29;20587;-75
2021/06/10 10:33:56;;;;;;;3.55;1.67;;;8.50;99.90;;;;;;4927959;29;20054;-71
2021/06/10 10:36:32;;;;;;;2.90;1.92;;;8.60;99.90;;;;;;4925691;29;20111;-72
2021/06/10 10:39:06;;;;;;;4.82;2.10;;;8.60;99.90;;;;;;4923248;29;20032;-73
2021/06/10 10:41:46;;;;;;;7.50;3.45;;;8.60;99.90;;;;;;4923945;29;20978;-72
2021/06/10 10:44:22;;;;;;;4.30;2.35;;;8.50;99.90;;;;;;4923130;29;20040;-70
2021/06/10 10:47:11;;;;;;;3.95;2.58;;;8.60;99.90;;;;;;4921471;29;20031;-72
2021/06/10 10:49:47;;;;;;;3.17;1.83;;;8.50;99.90;;;;;;4925875;29;20479;-70
2021/06/10 10:52:18;;;;;;;2.42;1.85;;;8.50;99.90;;;;;;4933851;29;20040;-70
2021/06/10 10:54:49;;;;;;;2.17;1.85;;;8.50;99.90;;;;;;4930184;29;20043;-70
2021/06/10 10:57:35;;;;;;;2.13;1.40;;;8.50;99.90;;;;;;4929552;29;20057;-70
2021/06/10 11:00:06;;;;;;;2.25;1.73;;;8.50;99.90;;;;;;4930487;29;20403;-71
2021/06/10 11:02:36;;;;;;;4.63;2.55;;;8.50;99.90;;;;;;4930391;29;20063;-70
2021/06/10 11:05:07;;;;;;;3.75;1.85;;;8.50;99.90;;;;;;4925005;29;20509;-71
2021/06/10 11:07:40;;;;;;;4.15;2.10;;;8.40;99.90;;;;;;4930113;29;20617;-70
2021/06/10 11:10:15;;;;;;;2.35;1.75;;;8.40;99.90;;;;;;4932620;29;20099;-68
2021/06/10 11:12:47;;;;;;;3.65;1.88;;;8.40;99.90;;;;;;4930502;29;20115;-69
2021/06/10 11:15:24;;;;;;;2.28;1.48;;;8.40;99.90;;;;;;4926798;29;20741;-70
2021/06/10 11:17:57;;;;;;;2.53;1.80;;;8.40;99.90;;;;;;4928454;29;20360;-70
2021/06/10 11:20:39;;;;;;;4.07;1.42;;;8.30;99.90;;;;;;4929718;29;20071;-69
2021/06/10 11:23:28;;;;;;;2.55;1.55;;;8.30;99.90;;;;;;4925423;29;20039;-69
2021/06/10 11:25:57;;;;;;;1.85;1.38;;;8.30;99.90;;;;;;4927264;29;20047;-70
2021/06/10 11:28:30;;;;;;;2.88;1.55;;;8.30;99.90;;;;;;4925501;29;20032;-70
2021/06/10 11:31:21;;;;;;;4.25;1.77;;;8.30;99.90;;;;;;4928232;29;20035;-71
2021/06/10 11:33:51;;;;;;;4.55;1.88;;;8.30;99.90;;;;;;4911537;29;20038;-70
2021/06/10 11:36:18;;;;;;;3.40;1.65;;;8.20;99.90;;;;;;4928262;29;20123;-70
2021/06/10 11:38:48;;;;;;;1.77;1.30;;;8.20;99.90;;;;;;4928822;29;20090;-71
2021/06/10 11:41:18;;;;;;;4.05;1.35;;;8.20;99.90;;;;;;4928702;29;20048;-71
2021/06/10 11:43:54;;;;;;;3.15;2.03;;;8.10;99.90;;;;;;4932234;29;20397;-71
2021/06/10 11:46:28;;;;;;;2.33;1.60;;;8.10;99.90;;;;;;4921841;29;20091;-70
2021/06/10 11:48:56;;;;;;;2.72;1.42;;;8.10;99.90;;;;;;4925269;29;20471;-70
2021/06/10 11:51:35;;;;;;;2.30;1.45;;;8.10;99.90;;;;;;4923131;29;20447;-69
2021/06/10 11:54:07;;;;;;;3.35;1.73;;;8.10;99.90;;;;;;4926449;29;20115;-71
2021/06/10 11:56:34;;;;;;;2.45;1.73;;;8.10;99.90;;;;;;4925112;29;20036;-71
2021/06/10 11:59:37;;;;;;;1.85;1.25;;;8.10;99.90;;;;;;4927117;29;20036;-70
2021/06/10 12:02:11;;;;;;;2.67;1.95;;;8.00;99.90;;;;;;4886406;29;20047;-69
2021/06/10 12:04:41;;;;;;;3.95;2.55;;;7.90;99.90;;;;;;4926944;29;20475;-70
2021/06/10 12:07:16;;;;;;;4.18;2.70;;;7.90;99.90;;;;;;4929216;29;20383;-72
2021/06/10 12:09:55;;;;;;;5.07;3.28;;;7.90;99.90;;;;;;4930283;29;20103;-73
2021/06/10 12:12:41;;;;;;;6.68;4.32;;;7.90;99.90;;;;;;4932319;29;20495;-72
2021/06/10 12:15:30;;;;;;;6.80;3.80;;;7.90;99.90;;;;;;4929773;29;20367;-72
2021/06/10 12:18:11;;;;;;;4.75;3.08;;;7.90;99.90;;;;;;4927374;29;20036;-72
2021/06/10 12:20:41;;;;;;;5.05;3.58;;;7.80;99.90;;;;;;4924326;29;20040;-71
2021/06/10 12:23:35;;;;;;;16.42;8.43;;;7.80;99.90;;;;;;4925630;29;20114;-72
2021/06/10 12:26:07;;;;;;;11.45;7.38;;;7.70;99.90;;;;;;4927437;29;20032;-72
2021/06/10 12:28:40;;;;;;;14.15;8.75;;;7.60;99.90;;;;;;4923999;29;20024;-72
2021/06/10 12:31:16;;;;;;;21.35;11.00;;;7.50;99.90;;;;;;4928993;29;20036;-73
2021/06/10 12:33:45;;;;;;;;;;;7.50;99.90;;;;;;4931971;29;20024;-72
2021/06/10 12:36:18;;;;;;;17.50;9.75;;;7.50;99.90;;;;;;4931085;29;19915;-73
2021/06/10 12:38:54;;;;;;;18.65;9.65;;;7.40;99.90;;;;;;4929428;29;20376;-71
2021/06/10 12:41:27;;;;;;;13.10;8.40;;;7.40;99.90;;;;;;4926348;29;20059;-69
2021/06/10 12:44:09;;;;;;;14.65;8.38;;;7.30;99.90;;;;;;4928760;29;20040;-69
2021/06/10 12:46:54;;;;;;;10.45;6.40;;;7.30;99.90;;;;;;4926929;29;20064;-71
2021/06/10 12:49:43;;;;;;;8.43;5.30;;;7.30;99.90;;;;;;4907060;29;20083;-70
2021/06/10 12:52:16;;;;;;;5.95;5.35;;;7.30;99.90;;;;;;4929294;29;20123;-70
2021/06/10 12:54:57;;;;;;;9.63;5.60;;;7.20;99.90;;;;;;4923818;29;20107;-71
2021/06/10 12:57:29;;;;;;;7.95;5.45;;;7.20;99.90;;;;;;4923879;29;20035;-69
2021/06/10 12:59:59;;;;;;;9.13;5.10;;;7.30;99.90;;;;;;4925962;29;20063;-70
2021/06/10 13:02:28;;;;;;;7.40;6.32;;;7.30;99.90;;;;;;4928183;29;20189;-70
2021/06/10 13:05:02;;;;;;;7.07;4.82;;;7.30;99.90;;;;;;4923736;29;20040;-69
2021/06/10 13:07:44;;;;;;;6.80;5.22;;;7.30;99.90;;;;;;4925662;29;20028;-71
2021/06/10 13:10:31;;;;;;;8.07;5.97;;;7.30;99.90;;;;;;4928481;29;20031;-70
2021/06/10 13:12:59;;;;;;;6.18;4.57;;;7.30;99.90;;;;;;4927331;29;20028;-69
2021/06/10 13:15:28;;;;;;;6.18;4.20;;;7.30;99.90;;;;;;4928622;29;20051;-69